Time;durP1;ratioP1;P1;durP2;ratioP2;P2;SDS_P1;SDS_P2;PMS_P1;PMS_P2;Temp;Humidity;BMP_temperature;BMP_pressure;BME280_temperature;BME280_humidity;BME280_pressure;Samples;Min_cycle;Max_cycle;Signal;HPM_P1;HPM_P2
2021/03/15 00:02:17;;;;;;;5.60;4.18;;;;;;;2.42;81.89;95924.06;5050256;28;20052;-68
2021/03/15 00:04:43;;;;;;;7.88;4.68;;;;;;;2.25;82.84;95919.84;5051858;28;20132;-68
2021/03/15 00:07:10;;;;;;;6.38;4.22;;;;;;;2.22;83.38;95919.56;5050369;28;20377;-68
2021/03/15 00:09:36;;;;;;;8.02;5.07;;;;;;;2.18;83.56;95913.94;5051723;28;20041;-68
2021/03/15 00:12:02;;;;;;;8.88;4.82;;;;;;;2.18;83.76;95918.50;5050555;28;20048;-69
2021/03/15 00:14:28;;;;;;;7.10;4.43;;;;;;;2.19;83.78;95914.75;5051404;28;20045;-68
2021/03/15 00:16:54;;;;;;;8.73;4.60;;;;;;;2.18;83.64;95918.50;5050824;28;20064;-68
2021/03/15 00:19:20;;;;;;;7.03;4.40;;;;;;;2.13;84.06;95913.16;5050345;28;20052;-68
2021/03/15 00:21:46;;;;;;;8.35;4.60;;;;;;;2.04;84.45;95918.31;5055972;28;20562;-68
2021/03/15 00:24:13;;;;;;;7.05;4.55;;;;;;;2.05;84.57;95914.53;5069665;28;20453;-68
2021/03/15 00:26:39;;;;;;;7.93;4.97;;;;;;;2.05;84.39;95917.22;5070677;28;20086;-68
2021/03/15 00:29:05;;;;;;;7.93;4.65;;;;;;;2.09;84.31;95915.63;5049600;28;20041;-68
2021/03/15 00:31:31;;;;;;;7.80;4.65;;;;;;;2.16;84.19;95910.75;5051320;28;20049;-68
2021/03/15 00:33:57;;;;;;;7.10;4.55;;;;;;;2.10;84.26;95906.47;5050055;28;20052;-68
2021/03/15 00:36:23;;;;;;;6.22;4.03;;;;;;;2.16;84.13;95909.94;5050821;28;20072;-68
2021/03/15 00:38:49;;;;;;;7.07;4.78;;;;;;;2.17;83.92;95906.16;5050429;28;20520;-68
2021/03/15 00:41:15;;;;;;;8.90;4.82;;;;;;;2.21;83.97;95910.72;5050262;28;20413;-68
2021/03/15 00:43:41;;;;;;;8.05;4.55;;;;;;;2.31;83.54;95913.34;5050528;28;20096;-68
2021/03/15 00:46:09;;;;;;;6.47;4.45;;;;;;;2.27;83.17;95914.97;5049845;28;20166;-68
2021/03/15 00:48:35;;;;;;;6.63;4.32;;;;;;;2.32;83.25;95917.66;5050581;28;20467;-68
2021/03/15 00:51:01;;;;;;;6.82;4.53;;;;;;;2.33;83.23;95911.19;5049534;28;20084;-70
2021/03/15 00:53:26;;;;;;;6.03;4.28;;;;;;;2.33;83.03;95911.19;5050824;28;20048;-68
2021/03/15 00:55:53;;;;;;;6.95;4.32;;;;;;;2.39;83.14;95908.47;5050989;28;20554;-68
2021/03/15 00:58:19;;;;;;;9.02;4.70;;;;;;;2.38;83.06;95907.69;5050465;28;20070;-68
2021/03/15 01:00:47;;;;;;;7.25;4.70;;;;;;;2.38;83.18;95906.88;5049859;28;20044;-68
2021/03/15 01:03:13;;;;;;;6.50;4.45;;;;;;;2.38;82.99;95898.81;5050020;28;20049;-68
2021/03/15 01:05:41;;;;;;;7.97;4.88;;;;;;;2.41;83.04;95895.59;5049845;28;20041;-68
2021/03/15 01:08:08;;;;;;;6.57;5.00;;;;;;;2.46;82.69;95903.63;5049797;28;20041;-69
2021/03/15 01:10:36;;;;;;;6.93;4.57;;;;;;;2.46;82.78;95903.63;5050245;28;20048;-68
2021/03/15 01:13:03;;;;;;;7.53;4.70;;;;;;;2.47;82.90;95895.28;5049495;28;20475;-68
2021/03/15 01:15:30;;;;;;;7.15;4.75;;;;;;;2.44;82.91;95900.38;5050530;28;20078;-68
2021/03/15 01:17:57;;;;;;;7.13;5.20;;;;;;;2.38;83.07;95896.13;5049412;28;20051;-67
2021/03/15 01:20:23;;;;;;;7.63;4.78;;;;;;;2.38;83.13;95896.13;5050297;28;20044;-68
2021/03/15 01:22:50;;;;;;;8.05;5.32;;;;;;;2.39;83.48;95897.72;5049290;28;20045;-68
2021/03/15 01:25:16;;;;;;;6.93;4.97;;;;;;;2.35;83.59;95890.25;5049970;28;20048;-68
2021/03/15 01:27:42;;;;;;;7.32;4.55;;;;;;;2.37;83.19;95886.47;5049420;28;20543;-68
2021/03/15 01:30:13;;;;;;;7.05;5.30;;;;;;;2.38;83.37;95885.38;5049752;28;20080;-68
2021/03/15 01:32:40;;;;;;;6.90;5.25;;;;;;;2.29;83.39;95877.88;5050031;28;20037;-68
2021/03/15 01:35:08;;;;;;;7.63;5.30;;;;;;;2.33;83.43;95884.31;5049687;28;20045;-68
2021/03/15 01:37:34;;;;;;;7.55;5.28;;;;;;;2.34;83.16;95883.22;5050633;28;20048;-68
2021/03/15 01:40:00;;;;;;;8.27;5.57;;;;;;;2.37;83.12;95878.41;5053435;28;20053;-68
2021/03/15 01:42:26;;;;;;;10.15;5.78;;;;;;;2.30;83.14;95874.16;5054301;28;20064;-68
2021/03/15 01:44:52;;;;;;;8.60;5.55;;;;;;;2.28;83.33;95876.28;5053342;28;20056;-68
2021/03/15 01:47:19;;;;;;;8.80;5.63;;;;;;;2.28;83.39;95862.06;5053987;28;20041;-68
2021/03/15 01:49:46;;;;;;;8.43;5.40;;;;;;;2.28;83.21;95862.06;5053816;28;20047;-68
2021/03/15 01:52:12;;;;;;;9.30;5.85;;;;;;;2.21;83.24;95858.88;5053675;28;20045;-68
2021/03/15 01:54:38;;;;;;;8.98;5.90;;;;;;;2.23;83.16;95865.56;5053536;28;20049;-68
2021/03/15 01:57:05;;;;;;;10.25;5.80;;;;;;;2.18;83.39;95860.22;5053284;28;20049;-68
2021/03/15 01:59:31;;;;;;;9.10;6.03;;;;;;;2.12;83.67;95865.91;5053726;28;20049;-68
2021/03/15 02:01:58;;;;;;;8.98;5.93;;;;;;;2.08;83.58;95858.38;5052983;28;20056;-68
2021/03/15 02:04:27;;;;;;;9.27;6.07;;;;;;;2.06;83.66;95865.13;5052975;28;20037;-68
2021/03/15 02:06:54;;;;;;;8.48;6.30;;;;;;;2.04;83.67;95860.03;5052868;28;20538;-68
2021/03/15 02:09:21;;;;;;;11.63;7.10;;;;;;;2.01;83.63;95855.19;5053507;28;20450;-67
2021/03/15 02:12:03;;;;;;;9.60;6.57;;;;;;;1.99;83.76;95856.56;5054004;28;20041;-68
2021/03/15 02:14:41;;;;;;;12.40;6.47;;;;;;;1.92;84.00;95856.84;5053531;28;20049;-68
2021/03/15 02:17:15;;;;;;;8.90;6.18;;;;;;;1.83;84.14;95858.50;5052869;28;20431;-68
2021/03/15 02:20:05;;;;;;;9.95;7.03;;;;;;;1.80;84.17;95854.47;5053772;28;20056;-68
2021/03/15 02:22:38;;;;;;;11.30;6.70;;;;;;;1.81;84.08;95856.09;5033868;28;20377;-68
2021/03/15 02:26:03;;;;;;;9.73;6.47;;;;;;;1.73;84.09;95856.66;5032420;28;20103;-68
2021/03/15 02:28:53;;;;;;;11.00;7.07;;;;;;;1.70;84.34;95848.34;4990183;28;20049;-68
2021/03/15 02:31:48;;;;;;;11.52;6.97;;;;;;;1.60;84.38;95851.88;4991391;28;20573;-68
2021/03/15 02:34:26;;;;;;;10.77;7.32;;;;;;;1.59;84.19;95842.22;5023505;28;20049;-68
2021/03/15 02:36:56;;;;;;;9.98;6.72;;;;;;;1.62;84.11;95841.69;5033103;28;20713;-68
2021/03/15 02:39:26;;;;;;;11.63;7.30;;;;;;;1.63;83.85;95831.75;5032621;28;20413;-68
2021/03/15 02:42:00;;;;;;;12.57;7.00;;;;;;;1.64;83.67;95844.88;5032707;28;20120;-68
2021/03/15 02:44:27;;;;;;;12.82;7.43;;;;;;;1.64;83.84;95842.19;5033211;28;20052;-68
2021/03/15 02:46:55;;;;;;;12.25;7.22;;;;;;;1.64;83.54;95847.56;5032347;28;20049;-68
2021/03/15 02:49:23;;;;;;;11.93;6.88;;;;;;;1.58;83.72;95851.34;5032654;28;20053;-68
2021/03/15 02:51:52;;;;;;;10.57;6.97;;;;;;;1.61;83.63;95849.97;5039248;28;20048;-68
2021/03/15 02:54:22;;;;;;;10.88;7.40;;;;;;;1.58;83.69;95859.41;5052357;28;20386;-68
2021/03/15 02:56:50;;;;;;;12.50;7.20;;;;;;;1.55;83.79;95865.28;5052453;28;20049;-68
2021/03/15 02:59:18;;;;;;;12.55;7.82;;;;;;;1.57;83.83;95855.13;5052172;28;20049;-68
2021/03/15 03:01:46;;;;;;;12.32;7.68;;;;;;;1.60;83.84;95859.91;5052718;28;20389;-68
2021/03/15 03:04:14;;;;;;;10.88;7.07;;;;;;;1.63;83.68;95854.00;5051476;28;20092;-68
2021/03/15 03:06:42;;;;;;;14.35;7.45;;;;;;;1.58;83.78;95856.72;5052878;28;20060;-68
2021/03/15 03:09:11;;;;;;;10.07;6.82;;;;;;;1.51;84.19;95850.81;5051084;28;20393;-68
2021/03/15 03:11:39;;;;;;;10.88;7.35;;;;;;;1.50;84.36;95851.88;5052863;28;20497;-68
2021/03/15 03:14:07;;;;;;;13.45;7.47;;;;;;;1.58;84.09;95851.34;5051365;28;20496;-68
2021/03/15 03:16:36;;;;;;;12.57;6.97;;;;;;;1.58;84.20;95858.59;5052491;28;20496;-68
2021/03/15 03:19:03;;;;;;;14.32;7.20;;;;;;;1.53;84.20;95848.69;5051573;28;20048;-68
2021/03/15 03:21:31;;;;;;;12.10;7.00;;;;;;;1.66;84.06;95842.72;5052642;28;20036;-68
2021/03/15 03:23:58;;;;;;;11.10;6.82;;;;;;;1.71;83.75;95844.59;5052217;28;20091;-68
2021/03/15 03:26:26;;;;;;;11.02;6.82;;;;;;;1.71;83.58;95845.38;5051033;28;20044;-68
2021/03/15 03:28:55;;;;;;;12.98;6.40;;;;;;;1.77;83.53;95836.22;5052166;28;20060;-68
2021/03/15 03:31:24;;;;;;;9.95;6.35;;;;;;;1.80;83.23;95837.56;5050749;28;20049;-68
2021/03/15 03:33:51;;;;;;;14.98;6.63;;;;;;;1.77;83.17;95841.59;5052598;28;20045;-67
2021/03/15 03:36:17;;;;;;;9.63;5.65;;;;;;;1.80;83.15;95838.38;5050814;28;20049;-68
2021/03/15 03:38:44;;;;;;;10.80;6.40;;;;;;;1.76;82.94;95833.81;5052203;28;20052;-67
2021/03/15 03:41:11;;;;;;;11.43;6.53;;;;;;;1.82;83.11;95833.53;5051120;28;20052;-68
2021/03/15 03:43:38;;;;;;;11.52;6.70;;;;;;;1.88;82.92;95837.03;5051924;28;20049;-68
2021/03/15 03:46:05;;;;;;;10.60;6.22;;;;;;;1.82;82.92;95836.22;5051081;28;20045;-68
2021/03/15 03:48:31;;;;;;;11.57;6.13;;;;;;;1.88;82.88;95838.88;5049210;28;20041;-68
2021/03/15 03:50:58;;;;;;;9.95;5.95;;;;;;;1.96;82.79;95822.19;5068951;28;20110;-68
2021/03/15 03:53:25;;;;;;;8.15;5.78;;;;;;;1.97;82.48;95821.13;5069620;28;20110;-68
2021/03/15 03:56:02;;;;;;;9.70;6.13;;;;;;;1.99;82.45;95821.66;5072106;28;20052;-68
2021/03/15 03:58:31;;;;;;;9.00;5.72;;;;;;;1.95;82.60;95824.09;5055799;28;20037;-68
2021/03/15 04:00:58;;;;;;;9.77;5.40;;;;;;;2.05;82.26;95825.91;5051452;28;20056;-67
2021/03/15 04:03:28;;;;;;;9.93;5.28;;;;;;;2.16;82.18;95824.78;5049980;28;20052;-68
2021/03/15 04:05:58;;;;;;;11.80;5.70;;;;;;;2.21;81.68;95819.38;5049883;28;20048;-69
2021/03/15 04:08:28;;;;;;;9.38;5.50;;;;;;;2.23;81.39;95822.59;5050950;28;20067;-68
2021/03/15 04:10:55;;;;;;;10.35;5.35;;;;;;;2.25;81.17;95817.75;5050784;28;20049;-68
2021/03/15 04:13:24;;;;;;;10.20;5.90;;;;;;;2.14;81.44;95820.75;5051206;28;20049;-68
2021/03/15 04:15:50;;;;;;;8.68;5.20;;;;;;;2.08;81.75;95820.78;5050387;28;20049;-69
2021/03/15 04:18:19;;;;;;;7.68;5.22;;;;;;;2.10;81.95;95831.28;5051103;28;20055;-68
2021/03/15 04:20:50;;;;;;;9.25;5.35;;;;;;;2.07;82.18;95834.50;5067412;28;20086;-68
2021/03/15 04:23:21;;;;;;;7.65;5.25;;;;;;;1.97;82.97;95831.84;5067156;28;20048;-68
2021/03/15 04:25:48;;;;;;;11.27;5.50;;;;;;;1.77;84.00;95828.19;5070826;28;20040;-68
2021/03/15 04:28:15;;;;;;;11.82;5.90;;;;;;;1.72;84.48;95838.97;5057208;28;20055;-68
2021/03/15 04:30:42;;;;;;;11.43;5.85;;;;;;;1.65;85.03;95833.06;5051012;28;20066;-68
2021/03/15 04:33:10;;;;;;;9.73;5.55;;;;;;;1.56;85.45;95835.50;5049905;28;20060;-68
2021/03/15 04:35:37;;;;;;;16.85;7.38;;;;;;;1.48;86.00;95841.44;5051318;28;20094;-69
2021/03/15 04:38:06;;;;;;;11.30;6.28;;;;;;;1.46;86.04;95826.66;5049771;28;20060;-68
2021/03/15 04:40:34;;;;;;;14.20;7.05;;;;;;;1.37;86.29;95831.00;5051283;28;20040;-69
2021/03/15 04:43:01;;;;;;;13.20;7.65;;;;;;;1.18;86.69;95838.81;5050103;28;20060;-69
2021/03/15 04:45:28;;;;;;;16.30;8.00;;;;;;;0.97;87.42;95835.34;5050453;28;20041;-70
2021/03/15 04:47:55;;;;;;;15.52;7.70;;;;;;;0.90;87.37;95832.97;5050485;28;20052;-70
2021/03/15 04:50:22;;;;;;;15.88;8.52;;;;;;;0.81;87.90;95836.44;5063375;28;21480;-69
2021/03/15 04:52:48;;;;;;;14.98;8.30;;;;;;;0.80;88.26;95830.28;5068628;28;20185;-69
2021/03/15 04:55:15;;;;;;;19.92;8.55;;;;;;;0.83;88.41;95828.94;5069684;28;20049;-69
2021/03/15 04:57:43;;;;;;;17.90;8.75;;;;;;;0.85;88.81;95821.44;5062512;28;20049;-69
2021/03/15 05:00:13;;;;;;;16.75;8.02;;;;;;;0.90;88.92;95819.56;5049246;28;20048;-69
2021/03/15 05:02:43;;;;;;;21.23;8.57;;;;;;;0.94;88.90;95820.63;5051039;28;20044;-69
2021/03/15 05:05:12;;;;;;;16.80;9.00;;;;;;;0.91;88.88;95823.03;5049144;28;20053;-69
2021/03/15 05:07:41;;;;;;;13.10;7.70;;;;;;;1.02;88.79;95824.63;5050803;28;20041;-69
2021/03/15 05:10:09;;;;;;;14.57;8.32;;;;;;;1.11;88.72;95825.69;5049397;28;20049;-70
2021/03/15 05:12:37;;;;;;;15.38;8.48;;;;;;;1.19;88.45;95816.28;5050026;28;20064;-69
2021/03/15 05:15:07;;;;;;;13.90;7.95;;;;;;;1.27;88.24;95813.84;5049625;28;20041;-69
2021/03/15 05:17:35;;;;;;;15.25;7.95;;;;;;;1.27;88.06;95811.19;5049676;28;20075;-69
2021/03/15 05:20:02;;;;;;;14.73;7.15;;;;;;;1.26;87.73;95806.91;5060995;28;20048;-71
2021/03/15 05:22:28;;;;;;;13.57;7.72;;;;;;;1.26;87.78;95806.91;5067494;28;20450;-69
2021/03/15 05:24:55;;;;;;;16.80;7.97;;;;;;;1.34;87.76;95796.66;5070596;28;20478;-69
2021/03/15 05:27:21;;;;;;;14.02;7.63;;;;;;;1.34;87.69;95804.72;5063363;28;20488;-69
2021/03/15 05:29:50;;;;;;;11.18;6.90;;;;;;;1.42;87.71;95798.81;5050542;28;20041;-69
2021/03/15 05:32:16;;;;;;;15.93;8.43;;;;;;;1.50;87.67;95804.41;5049269;28;20107;-69
2021/03/15 05:34:43;;;;;;;15.18;8.27;;;;;;;1.48;87.51;95800.41;5050130;28;20045;-69
2021/03/15 05:37:10;;;;;;;14.45;8.00;;;;;;;1.54;87.45;95801.97;5049594;28;20041;-70
2021/03/15 05:39:37;;;;;;;14.43;7.75;;;;;;;1.61;87.27;95805.16;5049509;28;20558;-69
2021/03/15 05:42:29;;;;;;;14.75;8.30;;;;;;;1.61;87.10;95807.84;5049940;28;20068;-70
2021/03/15 05:45:23;;;;;;;14.77;8.10;;;;;;;1.67;87.11;95801.41;5047121;28;20048;-68
2021/03/15 05:48:39;;;;;;;16.05;7.28;;;;;;;1.60;86.93;95792.81;5049930;28;20052;-69
2021/03/15 05:51:46;;;;;;;12.45;7.20;;;;;;;1.65;86.83;95789.31;5067231;28;20048;-70
2021/03/15 05:54:33;;;;;;;13.45;6.90;;;;;;;1.67;86.63;95785.31;5068787;28;20048;-70
2021/03/15 05:57:10;;;;;;;13.23;6.78;;;;;;;1.77;86.41;95785.22;5066944;28;20519;-69
2021/03/15 05:59:54;;;;;;;11.07;6.30;;;;;;;1.78;86.06;95778.00;5049565;28;20115;-69
2021/03/15 06:02:40;;;;;;;;;;;;;;;1.71;85.87;95769.44;5049114;28;20045;-69
2021/03/15 06:05:21;;;;;;;10.95;6.85;;;;;;;1.71;86.13;95772.13;5039844;28;20505;-69
2021/03/15 06:07:49;;;;;;;13.77;6.35;;;;;;;1.78;85.98;95776.13;5049384;28;20040;-69
2021/03/15 06:10:20;;;;;;;13.20;6.57;;;;;;;1.89;85.80;95768.81;5049100;28;20053;-69
2021/03/15 06:12:48;;;;;;;11.88;6.35;;;;;;;2.04;85.67;95775.97;5049929;28;20041;-69
2021/03/15 06:15:15;;;;;;;14.35;6.65;;;;;;;2.08;85.11;95763.59;5048548;28;20037;-69
2021/03/15 06:17:42;;;;;;;10.48;6.07;;;;;;;2.12;84.74;95772.69;5049989;28;20478;-69
2021/03/15 06:20:10;;;;;;;11.52;6.18;;;;;;;2.18;84.48;95774.25;5048341;28;20041;-68
2021/03/15 06:22:37;;;;;;;10.45;5.35;;;;;;;2.19;83.70;95775.06;5050008;28;20057;-70
2021/03/15 06:25:04;;;;;;;10.50;5.70;;;;;;;2.21;83.41;95771.03;5049110;28;20107;-71
2021/03/15 06:27:30;;;;;;;9.25;5.47;;;;;;;2.24;83.08;95777.72;5053406;28;20056;-74
2021/03/15 06:29:57;;;;;;;13.43;6.32;;;;;;;2.13;82.99;95774.28;5053070;28;20052;-73
2021/03/15 06:32:26;;;;;;;11.52;5.05;;;;;;;2.13;83.08;95773.50;5052681;28;20071;-72
2021/03/15 06:34:54;;;;;;;9.95;5.78;;;;;;;2.15;83.00;95768.66;5052866;28;20106;-74
2021/03/15 06:37:21;;;;;;;11.25;5.35;;;;;;;2.16;82.65;95765.69;5051899;28;20052;-72
2021/03/15 06:39:50;;;;;;;9.85;5.18;;;;;;;2.21;82.72;95762.16;5053226;28;20052;-72
2021/03/15 06:42:17;;;;;;;7.78;5.30;;;;;;;2.29;82.36;95757.00;5051398;28;20353;-72
2021/03/15 06:44:43;;;;;;;8.18;4.90;;;;;;;2.28;82.13;95755.38;5053394;28;20049;-78
2021/03/15 06:47:09;;;;;;;14.77;6.47;;;;;;;2.43;82.12;95756.38;5051759;28;20048;-76
2021/03/15 06:49:35;;;;;;;8.48;4.63;;;;;;;2.46;81.57;95755.81;5051497;28;20052;-72
2021/03/15 06:52:06;;;;;;;9.55;4.80;;;;;;;2.49;81.33;95755.25;5051537;28;20052;-72
2021/03/15 06:54:33;;;;;;;8.68;4.60;;;;;;;2.58;81.47;95758.94;5052544;28;20389;-72
2021/03/15 06:57:15;;;;;;;6.85;4.45;;;;;;;2.68;80.91;95750.78;5052314;28;20056;-72
2021/03/15 06:59:50;;;;;;;5.73;4.37;;;;;;;2.79;80.66;95746.13;5052240;28;20443;-73
2021/03/15 07:02:25;;;;;;;8.07;4.32;;;;;;;2.79;79.95;95751.50;5051599;28;20409;-72
2021/03/15 07:04:52;;;;;;;12.38;4.28;;;;;;;2.84;79.38;95738.00;5051970;28;20076;-73
2021/03/15 07:07:22;;;;;;;8.23;3.80;;;;;;;2.84;79.49;95741.50;5050654;28;20045;-73
2021/03/15 07:09:49;;;;;;;6.78;3.80;;;;;;;2.96;78.87;95740.31;5052137;28;20041;-73
2021/03/15 07:12:19;;;;;;;8.98;3.50;;;;;;;3.15;78.13;95738.50;5051875;28;20045;-73
2021/03/15 07:14:47;;;;;;;8.75;3.33;;;;;;;3.30;77.25;95735.63;5052358;28;20037;-73
2021/03/15 07:17:24;;;;;;;6.28;3.40;;;;;;;3.53;77.04;95744.78;5051761;28;20053;-73
2021/03/15 07:19:50;;;;;;;7.45;3.03;;;;;;;3.77;75.89;95734.00;5062051;28;20198;-73
2021/03/15 07:22:18;;;;;;;8.25;3.00;;;;;;;3.79;74.94;95739.88;5068897;28;20040;-73
2021/03/15 07:24:44;;;;;;;5.65;2.90;;;;;;;3.82;75.10;95746.59;5072792;28;20051;-73
2021/03/15 07:27:10;;;;;;;5.82;3.00;;;;;;;3.71;74.99;95735.16;5066709;28;20493;-72
2021/03/15 07:29:37;;;;;;;5.03;3.10;;;;;;;3.65;75.07;95742.50;5052571;28;20045;-73
2021/03/15 07:32:04;;;;;;;6.70;2.72;;;;;;;3.93;73.80;95748.06;5051427;28;20049;-73
2021/03/15 07:34:30;;;;;;;6.65;2.55;;;;;;;4.05;73.54;95739.53;5051975;28;20080;-72
2021/03/15 07:36:57;;;;;;;5.03;2.28;;;;;;;4.01;72.47;95743.91;5051828;28;20519;-73
2021/03/15 07:39:25;;;;;;;5.20;2.42;;;;;;;3.80;73.46;95738.78;5051180;28;20053;-72
2021/03/15 07:41:52;;;;;;;4.95;2.55;;;;;;;3.79;74.22;95742.56;5051933;28;20102;-73
2021/03/15 07:44:21;;;;;;;4.65;2.33;;;;;;;3.95;72.32;95745.84;5049974;28;20119;-73
2021/03/15 07:46:49;;;;;;;4.57;2.53;;;;;;;3.93;73.43;95746.16;5052009;28;20099;-73
2021/03/15 07:49:24;;;;;;;3.38;2.20;;;;;;;3.95;73.19;95742.38;5055152;28;20075;-74
2021/03/15 07:51:55;;;;;;;4.47;2.47;;;;;;;3.99;73.67;95743.41;5069779;28;20051;-73
2021/03/15 07:54:25;;;;;;;5.07;2.10;;;;;;;3.91;72.86;95737.59;5070739;28;20048;-73
2021/03/15 07:57:16;;;;;;;6.50;2.50;;;;;;;3.77;73.39;95739.38;5069895;28;20095;-73
2021/03/15 07:59:44;;;;;;;3.78;2.38;;;;;;;3.76;73.95;95737.78;5051628;28;20091;-73
2021/03/15 08:02:15;;;;;;;4.38;2.15;;;;;;;3.85;73.23;95743.31;5050307;28;20045;-73
2021/03/15 08:04:41;;;;;;;4.72;2.45;;;;;;;3.92;73.63;95741.88;5051973;28;20053;-73
2021/03/15 08:07:08;;;;;;;7.00;2.80;;;;;;;3.95;72.74;95734.28;5049901;28;20049;-73
2021/03/15 08:09:34;;;;;;;4.10;2.38;;;;;;;4.14;72.96;95737.78;5051885;28;20052;-72
2021/03/15 08:12:02;;;;;;;4.13;1.98;;;;;;;4.00;73.07;95740.41;5050708;28;20049;-73
2021/03/15 08:14:32;;;;;;;7.63;2.63;;;;;;;3.98;73.15;95733.72;5050934;28;20056;-73
2021/03/15 08:17:02;;;;;;;4.05;2.55;;;;;;;3.92;72.67;95733.78;5050663;28;20045;-73
2021/03/15 08:19:30;;;;;;;5.18;1.92;;;;;;;4.00;73.82;95731.53;5056621;28;20036;-73
2021/03/15 08:22:00;;;;;;;5.45;2.13;;;;;;;4.10;73.13;95737.56;5054549;28;20056;-71
2021/03/15 08:24:27;;;;;;;3.92;2.00;;;;;;;3.95;73.65;95734.28;5046898;28;20048;-72
2021/03/15 08:26:53;;;;;;;3.65;2.30;;;;;;;3.93;73.78;95730.00;5048029;28;20048;-74
2021/03/15 08:29:20;;;;;;;4.22;1.67;;;;;;;3.83;73.17;95732.81;5046433;28;20527;-74
2021/03/15 08:31:48;;;;;;;3.83;1.98;;;;;;;3.92;74.26;95724.91;5048285;28;20060;-72
2021/03/15 08:34:16;;;;;;;4.45;1.60;;;;;;;3.95;73.47;95727.00;5046843;28;20126;-72
2021/03/15 08:36:46;;;;;;;7.10;1.75;;;;;;;4.04;72.92;95717.19;5047574;28;20527;-74
2021/03/15 08:39:39;;;;;;;3.58;1.35;;;;;;;4.28;72.73;95713.59;5047076;28;20041;-71
2021/03/15 08:42:20;;;;;;;;;;;;;;;4.40;70.94;95712.06;5047195;28;20047;-71
2021/03/15 08:44:48;;;;;;;3.75;1.20;;;;;;;4.38;69.95;95706.13;5046467;28;19926;-71
2021/03/15 08:47:51;;;;;;;2.97;1.55;;;;;;;4.35;70.58;95700.56;5046231;28;20052;-72
2021/03/15 08:50:43;;;;;;;6.03;1.83;;;;;;;4.60;71.19;95699.34;5046439;28;20774;-71
2021/03/15 08:53:10;;;;;;;4.82;1.50;;;;;;;4.75;70.06;95701.78;5047670;28;20049;-72
2021/03/15 08:55:47;;;;;;;5.78;1.92;;;;;;;5.02;69.21;95682.13;5046770;28;20049;-71
2021/03/15 08:58:47;;;;;;;5.78;1.55;;;;;;;5.24;67.23;95689.53;5047217;28;20053;-72
2021/03/15 09:01:14;;;;;;;3.30;1.50;;;;;;;5.18;66.77;95677.25;4984383;28;20050;-72
2021/03/15 09:03:48;;;;;;;3.58;1.40;;;;;;;5.21;66.44;95680.13;4985034;28;20129;-72
2021/03/15 09:06:14;;;;;;;3.42;1.42;;;;;;;5.27;66.88;95675.41;5005155;28;20048;-72
2021/03/15 09:08:57;;;;;;;2.58;1.38;;;;;;;5.28;66.73;95663.53;5045410;28;20056;-72
2021/03/15 09:11:45;;;;;;;4.95;1.40;;;;;;;5.02;68.37;95665.94;5047305;28;20041;-72
2021/03/15 09:14:35;;;;;;;3.88;1.48;;;;;;;5.03;68.82;95655.94;5046335;28;20127;-72
2021/03/15 09:17:17;;;;;;;4.38;1.40;;;;;;;4.82;69.55;95650.94;5046909;28;20045;-72
2021/03/15 09:19:44;;;;;;;3.08;1.40;;;;;;;4.55;70.47;95653.59;5046922;28;20041;-72
2021/03/15 09:22:21;;;;;;;3.70;1.60;;;;;;;4.41;71.34;95648.16;5045983;28;20060;-72
2021/03/15 09:24:53;;;;;;;3.00;1.45;;;;;;;4.38;71.64;95652.22;5047727;28;20045;-72
2021/03/15 09:27:30;;;;;;;3.15;1.92;;;;;;;4.18;71.97;95649.91;5045646;28;20049;-72
2021/03/15 09:29:58;;;;;;;3.17;1.50;;;;;;;4.09;73.77;95649.75;5047286;28;20072;-71
2021/03/15 09:32:29;;;;;;;3.60;1.73;;;;;;;4.01;74.68;95644.22;5046380;28;20103;-72
2021/03/15 09:34:58;;;;;;;6.13;1.83;;;;;;;3.86;75.16;95640.69;5045163;28;20045;-72
2021/03/15 09:37:24;;;;;;;2.72;1.77;;;;;;;3.81;75.46;95643.47;5046241;28;20052;-72
2021/03/15 09:39:50;;;;;;;3.78;1.90;;;;;;;3.72;76.75;95637.13;5046032;28;20109;-72
2021/03/15 09:42:19;;;;;;;2.80;1.75;;;;;;;3.71;77.91;95638.22;5047139;28;20063;-72
2021/03/15 09:44:45;;;;;;;5.30;2.28;;;;;;;3.67;79.18;95637.19;5046646;28;20049;-72
2021/03/15 09:47:14;;;;;;;4.53;2.28;;;;;;;3.61;78.56;95632.97;5046725;28;20133;-73
2021/03/15 09:49:41;;;;;;;4.90;2.60;;;;;;;3.64;79.94;95632.38;5054173;28;20049;-73
2021/03/15 09:52:16;;;;;;;4.40;2.50;;;;;;;3.50;80.27;95626.94;5055717;28;20708;-72
2021/03/15 09:54:43;;;;;;;3.65;2.25;;;;;;;3.50;80.36;95628.81;5046550;28;20079;-73
2021/03/15 09:57:10;;;;;;;5.50;2.25;;;;;;;3.43;81.14;95631.84;5045874;28;20416;-72
2021/03/15 09:59:37;;;;;;;3.88;2.42;;;;;;;3.33;81.05;95632.78;5047012;28;20049;-72
2021/03/15 10:02:04;;;;;;;3.78;2.10;;;;;;;3.34;81.24;95623.66;5049468;28;20048;-72
2021/03/15 10:04:33;;;;;;;6.00;2.70;;;;;;;3.51;81.72;95616.97;5051235;28;20056;-72
2021/03/15 10:07:00;;;;;;;5.25;1.98;;;;;;;3.50;80.45;95620.72;5049918;28;20057;-72
2021/03/15 10:09:26;;;;;;;3.97;1.80;;;;;;;3.44;80.83;95616.50;5050584;28;20407;-73
2021/03/15 10:11:53;;;;;;;3.75;1.80;;;;;;;3.43;81.21;95625.69;5049728;28;20504;-72
2021/03/15 10:14:20;;;;;;;3.40;1.75;;;;;;;3.40;81.21;95619.00;5050137;28;20049;-72
2021/03/15 10:16:58;;;;;;;5.15;1.60;;;;;;;3.41;81.33;95617.91;5050238;28;20504;-73
2021/03/15 10:19:27;;;;;;;2.85;1.63;;;;;;;3.44;81.33;95605.75;5049355;28;20051;-73
2021/03/15 10:21:54;;;;;;;1.98;1.50;;;;;;;3.44;80.85;95608.44;5050643;28;20048;-72
2021/03/15 10:24:38;;;;;;;3.13;1.40;;;;;;;3.44;80.80;95611.13;5049137;28;20090;-72
2021/03/15 10:27:04;;;;;;;;;;;;;;;3.49;80.50;95614.53;5050499;28;20550;-73
2021/03/15 10:29:32;;;;;;;1.98;1.23;;;;;;;3.46;78.58;95595.50;5049274;28;20299;-74
2021/03/15 10:32:05;;;;;;;1.52;1.30;;;;;;;3.43;79.48;95610.31;5050494;28;20053;-74
2021/03/15 10:34:31;;;;;;;1.65;1.30;;;;;;;3.38;79.42;95603.13;5029944;28;20049;-74
2021/03/15 10:36:58;;;;;;;2.65;1.27;;;;;;;3.44;79.60;95608.44;5030045;28;20053;-74
2021/03/15 10:39:25;;;;;;;2.47;1.40;;;;;;;3.49;81.33;95602.97;5029868;28;20071;-74
2021/03/15 10:41:53;;;;;;;2.50;1.45;;;;;;;3.48;81.66;95596.81;5029586;28;20049;-74
2021/03/15 10:44:20;;;;;;;2.47;1.45;;;;;;;3.51;82.53;95600.81;5029924;28;20196;-75
2021/03/15 10:46:48;;;;;;;2.47;1.40;;;;;;;3.49;82.79;95597.59;5029382;28;20056;-74
2021/03/15 10:49:20;;;;;;;2.10;1.40;;;;;;;3.53;82.85;95595.94;5029654;28;20049;-74
2021/03/15 10:51:48;;;;;;;2.00;1.35;;;;;;;3.59;81.50;95594.75;5029211;28;20580;-75
2021/03/15 10:54:29;;;;;;;1.65;1.00;;;;;;;3.68;80.14;95590.31;5029608;28;20524;-74
2021/03/15 10:57:16;;;;;;;1.38;0.98;;;;;;;3.79;80.34;95591.75;5029719;28;20045;-74
2021/03/15 10:59:44;;;;;;;2.17;0.95;;;;;;;3.94;79.91;95582.66;5028903;28;20041;-74
2021/03/15 11:02:10;;;;;;;1.30;1.00;;;;;;;3.90;78.57;95577.03;5029776;28;20120;-74
2021/03/15 11:04:38;;;;;;;1.55;1.10;;;;;;;3.97;79.04;95576.69;5028900;28;20408;-74
2021/03/15 11:07:18;;;;;;;2.13;1.10;;;;;;;4.02;79.15;95575.78;5029341;28;20058;-74
2021/03/15 11:09:59;;;;;;;2.60;1.20;;;;;;;4.10;79.40;95565.13;5028911;28;20049;-74
2021/03/15 11:12:40;;;;;;;2.22;1.17;;;;;;;4.09;78.27;95573.50;5028585;28;20072;-75
2021/03/15 11:15:15;;;;;;;1.27;1.10;;;;;;;4.10;78.46;95564.34;5029181;28;20060;-73
2021/03/15 11:17:43;;;;;;;1.88;1.08;;;;;;;4.11;79.22;95560.53;5029097;28;20049;-74
2021/03/15 11:20:12;;;;;;;1.20;0.90;;;;;;;4.06;78.53;95572.19;5032251;28;20093;-74
2021/03/15 11:22:46;;;;;;;1.45;1.00;;;;;;;3.85;78.82;95569.03;5031796;28;20045;-75
2021/03/15 11:25:13;;;;;;;1.52;0.93;;;;;;;3.77;79.92;95571.63;5032143;28;20045;-74
2021/03/15 11:27:39;;;;;;;2.15;1.38;;;;;;;3.80;81.37;95565.63;5031558;28;20500;-74
2021/03/15 11:30:18;;;;;;;1.45;1.30;;;;;;;3.80;81.57;95561.03;5031911;28;20045;-74
2021/03/15 11:32:44;;;;;;;1.70;1.10;;;;;;;3.76;81.44;95564.59;5032444;28;20041;-74
2021/03/15 11:35:19;;;;;;;1.73;0.90;;;;;;;3.71;82.09;95557.44;5031086;28;20046;-75
2021/03/15 11:37:47;;;;;;;0.93;0.80;;;;;;;3.54;81.82;95559.84;5032461;28;20408;-75
2021/03/15 11:40:14;;;;;;;1.58;1.08;;;;;;;3.49;82.72;95555.31;5030916;28;20049;-74
2021/03/15 11:42:40;;;;;;;1.75;1.00;;;;;;;3.45;82.81;95554.34;5032398;28;20057;-75
2021/03/15 11:45:07;;;;;;;2.22;1.00;;;;;;;3.37;83.45;95558.47;5030799;28;20049;-74
2021/03/15 11:47:33;;;;;;;0.90;0.80;;;;;;;3.40;84.01;95546.34;5032660;28;20049;-74
2021/03/15 11:49:59;;;;;;;1.42;1.00;;;;;;;3.45;84.35;95554.34;5032216;28;20071;-75
2021/03/15 11:52:27;;;;;;;2.67;0.90;;;;;;;3.37;83.78;95547.69;5031232;28;20045;-74
2021/03/15 11:54:53;;;;;;;1.10;0.90;;;;;;;3.38;84.20;95554.69;5031812;28;20053;-75